sensor_id;sensor_type;location;lat;lon;timestamp;P1;durP1;ratioP1;P2;durP2;ratioP2
19664;SDS011;9980;51.020;7.772;2023-06-04T00:02:23;2.03;;;1.57;;
19664;SDS011;9980;51.020;7.772;2023-06-04T00:04:50;1.67;;;1.57;;
19664;SDS011;9980;51.020;7.772;2023-06-04T00:07:17;2.50;;;1.47;;
19664;SDS011;9980;51.020;7.772;2023-06-04T00:09:45;1.87;;;1.77;;
19664;SDS011;9980;51.020;7.772;2023-06-04T00:12:13;2.00;;;1.80;;
19664;SDS011;9980;51.020;7.772;2023-06-04T00:14:40;2.23;;;1.63;;
19664;SDS011;9980;51.020;7.772;2023-06-04T00:17:08;1.60;;;1.50;;
19664;SDS011;9980;51.020;7.772;2023-06-04T00:19:38;1.70;;;1.60;;
19664;SDS011;9980;51.020;7.772;2023-06-04T00:22:06;2.07;;;1.97;;
19664;SDS011;9980;51.020;7.772;2023-06-04T00:24:34;2.37;;;1.40;;
19664;SDS011;9980;51.020;7.772;2023-06-04T00:27:05;2.20;;;1.90;;
19664;SDS011;9980;51.020;7.772;2023-06-04T00:29:34;2.03;;;1.93;;
19664;SDS011;9980;51.020;7.772;2023-06-04T00:32:01;4.23;;;2.00;;
19664;SDS011;9980;51.020;7.772;2023-06-04T00:34:29;2.40;;;1.80;;
19664;SDS011;9980;51.020;7.772;2023-06-04T00:36:56;1.97;;;1.87;;
19664;SDS011;9980;51.020;7.772;2023-06-04T00:39:23;2.87;;;2.00;;
19664;SDS011;9980;51.020;7.772;2023-06-04T00:41:50;3.77;;;1.80;;
19664;SDS011;9980;51.020;7.772;2023-06-04T00:44:17;2.23;;;2.03;;
19664;SDS011;9980;51.020;7.772;2023-06-04T00:46:44;2.03;;;1.80;;
19664;SDS011;9980;51.020;7.772;2023-06-04T00:49:11;1.97;;;1.87;;
19664;SDS011;9980;51.020;7.772;2023-06-04T00:51:39;2.27;;;2.07;;
19664;SDS011;9980;51.020;7.772;2023-06-04T00:54:07;2.50;;;1.67;;
19664;SDS011;9980;51.020;7.772;2023-06-04T00:56:38;1.90;;;1.80;;
19664;SDS011;9980;51.020;7.772;2023-06-04T00:59:06;2.33;;;2.20;;
19664;SDS011;9980;51.020;7.772;2023-06-04T01:05:11;1.80;;;1.70;;
19664;SDS011;9980;51.020;7.772;2023-06-04T01:07:37;2.63;;;1.80;;
19664;SDS011;9980;51.020;7.772;2023-06-04T01:10:07;1.93;;;1.83;;
19664;SDS011;9980;51.020;7.772;2023-06-04T01:12:34;1.90;;;1.80;;
19664;SDS011;9980;51.020;7.772;2023-06-04T01:15:01;4.30;;;2.00;;
19664;SDS011;9980;51.020;7.772;2023-06-04T01:17:37;2.03;;;1.93;;
19664;SDS011;9980;51.020;7.772;2023-06-04T01:23:05;2.10;;;2.00;;
19664;SDS011;9980;51.020;7.772;2023-06-04T01:26:08;1.93;;;1.83;;
19664;SDS011;9980;51.020;7.772;2023-06-04T01:28:37;2.00;;;1.90;;
19664;SDS011;9980;51.020;7.772;2023-06-04T01:31:06;1.90;;;1.80;;
19664;SDS011;9980;51.020;7.772;2023-06-04T01:33:35;2.20;;;2.00;;
19664;SDS011;9980;51.020;7.772;2023-06-04T01:36:02;2.03;;;1.93;;
19664;SDS011;9980;51.020;7.772;2023-06-04T01:38:30;1.90;;;1.80;;
19664;SDS011;9980;51.020;7.772;2023-06-04T01:40:57;2.30;;;2.10;;
19664;SDS011;9980;51.020;7.772;2023-06-04T01:43:28;5.00;;;2.53;;
19664;SDS011;9980;51.020;7.772;2023-06-04T01:45:55;1.97;;;1.87;;
19664;SDS011;9980;51.020;7.772;2023-06-04T01:48:23;2.10;;;1.90;;
19664;SDS011;9980;51.020;7.772;2023-06-04T01:50:49;2.40;;;2.20;;
19664;SDS011;9980;51.020;7.772;2023-06-04T01:53:16;2.80;;;2.27;;
19664;SDS011;9980;51.020;7.772;2023-06-04T01:55:43;2.40;;;2.20;;
19664;SDS011;9980;51.020;7.772;2023-06-04T01:58:11;2.10;;;2.00;;
19664;SDS011;9980;51.020;7.772;2023-06-04T02:00:37;1.93;;;1.83;;
19664;SDS011;9980;51.020;7.772;2023-06-04T02:03:04;2.03;;;1.93;;
19664;SDS011;9980;51.020;7.772;2023-06-04T02:05:32;2.80;;;2.00;;
19664;SDS011;9980;51.020;7.772;2023-06-04T02:07:59;2.70;;;2.33;;
19664;SDS011;9980;51.020;7.772;2023-06-04T02:10:28;2.00;;;1.90;;
19664;SDS011;9980;51.020;7.772;2023-06-04T02:13:04;2.00;;;1.90;;
19664;SDS011;9980;51.020;7.772;2023-06-04T02:15:31;2.60;;;2.40;;
19664;SDS011;9980;51.020;7.772;2023-06-04T02:18:10;2.07;;;1.97;;
19664;SDS011;9980;51.020;7.772;2023-06-04T02:20:44;2.80;;;2.30;;
19664;SDS011;9980;51.020;7.772;2023-06-04T02:23:12;2.33;;;2.20;;
19664;SDS011;9980;51.020;7.772;2023-06-04T02:25:41;2.00;;;1.90;;
19664;SDS011;9980;51.020;7.772;2023-06-04T02:28:10;2.47;;;2.27;;
19664;SDS011;9980;51.020;7.772;2023-06-04T02:30:38;2.00;;;1.90;;
19664;SDS011;9980;51.020;7.772;2023-06-04T02:33:05;2.53;;;2.10;;
19664;SDS011;9980;51.020;7.772;2023-06-04T02:35:32;1.93;;;1.83;;
19664;SDS011;9980;51.020;7.772;2023-06-04T02:37:59;2.30;;;2.20;;
19664;SDS011;9980;51.020;7.772;2023-06-04T02:40:27;1.90;;;1.80;;
19664;SDS011;9980;51.020;7.772;2023-06-04T02:42:55;3.20;;;2.07;;
19664;SDS011;9980;51.020;7.772;2023-06-04T02:45:23;2.03;;;1.80;;
19664;SDS011;9980;51.020;7.772;2023-06-04T02:47:50;2.17;;;2.07;;
19664;SDS011;9980;51.020;7.772;2023-06-04T02:50:17;2.40;;;2.20;;
19664;SDS011;9980;51.020;7.772;2023-06-04T02:52:44;1.80;;;1.70;;
19664;SDS011;9980;51.020;7.772;2023-06-04T02:55:11;1.97;;;1.87;;
19664;SDS011;9980;51.020;7.772;2023-06-04T02:57:39;2.20;;;1.80;;
19664;SDS011;9980;51.020;7.772;2023-06-04T03:00:13;2.60;;;2.40;;
19664;SDS011;9980;51.020;7.772;2023-06-04T03:02:42;2.03;;;1.93;;
19664;SDS011;9980;51.020;7.772;2023-06-04T03:05:12;2.83;;;2.50;;
19664;SDS011;9980;51.020;7.772;2023-06-04T03:07:41;2.60;;;2.17;;
19664;SDS011;9980;51.020;7.772;2023-06-04T03:10:11;2.30;;;2.20;;
19664;SDS011;9980;51.020;7.772;2023-06-04T03:12:41;2.50;;;2.10;;
19664;SDS011;9980;51.020;7.772;2023-06-04T03:15:08;2.50;;;2.30;;
19664;SDS011;9980;51.020;7.772;2023-06-04T03:17:36;2.47;;;2.37;;
19664;SDS011;9980;51.020;7.772;2023-06-04T03:20:03;2.20;;;2.10;;
19664;SDS011;9980;51.020;7.772;2023-06-04T03:22:33;2.90;;;2.30;;
19664;SDS011;9980;51.020;7.772;2023-06-04T03:25:02;4.37;;;2.33;;
19664;SDS011;9980;51.020;7.772;2023-06-04T03:27:32;2.37;;;2.27;;
19664;SDS011;9980;51.020;7.772;2023-06-04T03:30:00;2.60;;;2.40;;
19664;SDS011;9980;51.020;7.772;2023-06-04T03:32:35;2.30;;;2.20;;
19664;SDS011;9980;51.020;7.772;2023-06-04T03:35:02;2.30;;;2.17;;
19664;SDS011;9980;51.020;7.772;2023-06-04T03:37:31;2.80;;;2.60;;
19664;SDS011;9980;51.020;7.772;2023-06-04T03:39:59;2.33;;;2.23;;
19664;SDS011;9980;51.020;7.772;2023-06-04T03:42:26;3.00;;;2.70;;
19664;SDS011;9980;51.020;7.772;2023-06-04T03:44:53;3.33;;;2.40;;
19664;SDS011;9980;51.020;7.772;2023-06-04T03:47:21;2.20;;;2.10;;
19664;SDS011;9980;51.020;7.772;2023-06-04T03:49:48;2.53;;;2.40;;
19664;SDS011;9980;51.020;7.772;2023-06-04T03:52:15;5.03;;;2.33;;
19664;SDS011;9980;51.020;7.772;2023-06-04T03:54:42;2.57;;;2.37;;
19664;SDS011;9980;51.020;7.772;2023-06-04T03:57:09;2.53;;;2.17;;
19664;SDS011;9980;51.020;7.772;2023-06-04T03:59:37;3.47;;;2.40;;
19664;SDS011;9980;51.020;7.772;2023-06-04T04:02:04;2.07;;;1.90;;
19664;SDS011;9980;51.020;7.772;2023-06-04T04:04:33;3.20;;;2.17;;
19664;SDS011;9980;51.020;7.772;2023-06-04T04:06:59;2.80;;;2.60;;
19664;SDS011;9980;51.020;7.772;2023-06-04T04:09:27;2.90;;;2.70;;
19664;SDS011;9980;51.020;7.772;2023-06-04T04:11:54;2.63;;;2.43;;
19664;SDS011;9980;51.020;7.772;2023-06-04T04:14:22;3.80;;;3.00;;
19664;SDS011;9980;51.020;7.772;2023-06-04T04:16:49;2.60;;;2.40;;
19664;SDS011;9980;51.020;7.772;2023-06-04T04:19:16;2.53;;;2.33;;
19664;SDS011;9980;51.020;7.772;2023-06-04T04:21:43;2.67;;;2.47;;
19664;SDS011;9980;51.020;7.772;2023-06-04T04:24:22;2.50;;;2.40;;
19664;SDS011;9980;51.020;7.772;2023-06-04T04:26:58;2.20;;;2.10;;
19664;SDS011;9980;51.020;7.772;2023-06-04T04:29:25;2.60;;;2.40;;
19664;SDS011;9980;51.020;7.772;2023-06-04T04:31:55;3.10;;;2.47;;
19664;SDS011;9980;51.020;7.772;2023-06-04T04:34:25;2.90;;;2.60;;
19664;SDS011;9980;51.020;7.772;2023-06-04T04:36:53;3.10;;;2.90;;
19664;SDS011;9980;51.020;7.772;2023-06-04T04:39:23;2.80;;;2.60;;
19664;SDS011;9980;51.020;7.772;2023-06-04T04:41:54;2.50;;;2.30;;
19664;SDS011;9980;51.020;7.772;2023-06-04T04:44:22;2.87;;;2.50;;
19664;SDS011;9980;51.020;7.772;2023-06-04T04:46:49;2.53;;;2.33;;
19664;SDS011;9980;51.020;7.772;2023-06-04T04:49:16;3.97;;;2.30;;
19664;SDS011;9980;51.020;7.772;2023-06-04T04:51:43;3.00;;;2.40;;
19664;SDS011;9980;51.020;7.772;2023-06-04T04:54:10;2.40;;;2.20;;
19664;SDS011;9980;51.020;7.772;2023-06-04T04:56:38;2.60;;;2.40;;
19664;SDS011;9980;51.020;7.772;2023-06-04T04:59:05;2.47;;;2.27;;
19664;SDS011;9980;51.020;7.772;2023-06-04T05:01:32;4.33;;;2.20;;
19664;SDS011;9980;51.020;7.772;2023-06-04T05:04:00;3.87;;;2.57;;
19664;SDS011;9980;51.020;7.772;2023-06-04T05:06:29;3.30;;;2.10;;
19664;SDS011;9980;51.020;7.772;2023-06-04T05:08:56;3.90;;;2.63;;
19664;SDS011;9980;51.020;7.772;2023-06-04T05:11:23;3.23;;;2.27;;
19664;SDS011;9980;51.020;7.772;2023-06-04T05:13:51;2.40;;;2.20;;
19664;SDS011;9980;51.020;7.772;2023-06-04T05:16:18;2.40;;;2.20;;
19664;SDS011;9980;51.020;7.772;2023-06-04T05:18:47;2.40;;;2.20;;
19664;SDS011;9980;51.020;7.772;2023-06-04T05:21:20;2.50;;;2.30;;
19664;SDS011;9980;51.020;7.772;2023-06-04T05:23:53;4.30;;;2.03;;
19664;SDS011;9980;51.020;7.772;2023-06-04T05:26:25;3.70;;;2.10;;
19664;SDS011;9980;51.020;7.772;2023-06-04T05:28:57;2.37;;;2.17;;
19664;SDS011;9980;51.020;7.772;2023-06-04T05:31:27;2.40;;;2.20;;
19664;SDS011;9980;51.020;7.772;2023-06-04T05:33:57;2.90;;;2.13;;
19664;SDS011;9980;51.020;7.772;2023-06-04T05:36:26;3.33;;;2.27;;
19664;SDS011;9980;51.020;7.772;2023-06-04T05:38:57;4.07;;;2.20;;
19664;SDS011;9980;51.020;7.772;2023-06-04T05:41:34;2.20;;;2.00;;
19664;SDS011;9980;51.020;7.772;2023-06-04T05:44:03;2.17;;;2.03;;
19664;SDS011;9980;51.020;7.772;2023-06-04T05:46:30;3.70;;;2.60;;
19664;SDS011;9980;51.020;7.772;2023-06-04T05:48:57;6.27;;;2.30;;
19664;SDS011;9980;51.020;7.772;2023-06-04T05:51:25;2.93;;;2.63;;
19664;SDS011;9980;51.020;7.772;2023-06-04T05:53:52;2.70;;;2.50;;
19664;SDS011;9980;51.020;7.772;2023-06-04T05:56:19;3.90;;;2.17;;
19664;SDS011;9980;51.020;7.772;2023-06-04T05:58:51;2.50;;;2.30;;
19664;SDS011;9980;51.020;7.772;2023-06-04T06:01:21;3.73;;;2.43;;
19664;SDS011;9980;51.020;7.772;2023-06-04T06:03:50;3.30;;;2.57;;
19664;SDS011;9980;51.020;7.772;2023-06-04T06:06:18;2.83;;;2.27;;
19664;SDS011;9980;51.020;7.772;2023-06-04T06:08:47;3.27;;;2.33;;
19664;SDS011;9980;51.020;7.772;2023-06-04T06:11:14;2.83;;;2.50;;
19664;SDS011;9980;51.020;7.772;2023-06-04T06:13:41;2.90;;;2.40;;
19664;SDS011;9980;51.020;7.772;2023-06-04T06:16:09;4.63;;;2.30;;
19664;SDS011;9980;51.020;7.772;2023-06-04T06:18:37;2.70;;;2.50;;
19664;SDS011;9980;51.020;7.772;2023-06-04T06:21:03;2.63;;;2.43;;
19664;SDS011;9980;51.020;7.772;2023-06-04T06:23:31;2.60;;;2.40;;
19664;SDS011;9980;51.020;7.772;2023-06-04T06:25:59;2.83;;;2.50;;
19664;SDS011;9980;51.020;7.772;2023-06-04T06:28:30;2.40;;;2.30;;
19664;SDS011;9980;51.020;7.772;2023-06-04T06:30:58;3.33;;;3.00;;
19664;SDS011;9980;51.020;7.772;2023-06-04T06:33:25;3.23;;;2.43;;
19664;SDS011;9980;51.020;7.772;2023-06-04T06:35:52;4.43;;;2.50;;
19664;SDS011;9980;51.020;7.772;2023-06-04T06:38:19;3.20;;;2.90;;
19664;SDS011;9980;51.020;7.772;2023-06-04T06:40:46;2.50;;;2.30;;
19664;SDS011;9980;51.020;7.772;2023-06-04T06:43:13;4.00;;;2.47;;
19664;SDS011;9980;51.020;7.772;2023-06-04T06:45:40;2.63;;;2.43;;
19664;SDS011;9980;51.020;7.772;2023-06-04T06:48:06;3.27;;;2.40;;
19664;SDS011;9980;51.020;7.772;2023-06-04T06:50:33;3.87;;;2.60;;
19664;SDS011;9980;51.020;7.772;2023-06-04T06:53:04;2.80;;;2.60;;
19664;SDS011;9980;51.020;7.772;2023-06-04T06:55:31;2.37;;;2.20;;
19664;SDS011;9980;51.020;7.772;2023-06-04T06:57:58;3.10;;;2.50;;
19664;SDS011;9980;51.020;7.772;2023-06-04T07:00:26;2.73;;;2.23;;
19664;SDS011;9980;51.020;7.772;2023-06-04T07:02:54;4.03;;;2.43;;
19664;SDS011;9980;51.020;7.772;2023-06-04T07:05:22;3.10;;;2.00;;
19664;SDS011;9980;51.020;7.772;2023-06-04T07:07:49;2.00;;;1.90;;
19664;SDS011;9980;51.020;7.772;2023-06-04T07:10:15;2.83;;;2.00;;
19664;SDS011;9980;51.020;7.772;2023-06-04T07:12:42;2.10;;;1.90;;
19664;SDS011;9980;51.020;7.772;2023-06-04T07:15:09;3.97;;;2.27;;
19664;SDS011;9980;51.020;7.772;2023-06-04T07:17:36;2.77;;;2.10;;
19664;SDS011;9980;51.020;7.772;2023-06-04T07:20:03;2.80;;;2.17;;
19664;SDS011;9980;51.020;7.772;2023-06-04T07:22:33;4.07;;;2.13;;
19664;SDS011;9980;51.020;7.772;2023-06-04T07:25:00;5.10;;;1.97;;
19664;SDS011;9980;51.020;7.772;2023-06-04T07:27:27;2.20;;;2.10;;
19664;SDS011;9980;51.020;7.772;2023-06-04T07:29:54;4.73;;;1.90;;
19664;SDS011;9980;51.020;7.772;2023-06-04T07:32:21;3.07;;;1.93;;
19664;SDS011;9980;51.020;7.772;2023-06-04T07:34:48;1.73;;;1.50;;
19664;SDS011;9980;51.020;7.772;2023-06-04T07:37:15;2.80;;;2.20;;
19664;SDS011;9980;51.020;7.772;2023-06-04T07:39:42;3.63;;;1.87;;
19664;SDS011;9980;51.020;7.772;2023-06-04T07:42:09;1.63;;;1.53;;
19664;SDS011;9980;51.020;7.772;2023-06-04T07:44:36;3.50;;;2.10;;
19664;SDS011;9980;51.020;7.772;2023-06-04T07:47:04;2.17;;;1.87;;
19664;SDS011;9980;51.020;7.772;2023-06-04T07:49:32;2.73;;;2.10;;
19664;SDS011;9980;51.020;7.772;2023-06-04T07:51:59;6.33;;;1.90;;
19664;SDS011;9980;51.020;7.772;2023-06-04T07:54:26;4.10;;;1.27;;
19664;SDS011;9980;51.020;7.772;2023-06-04T07:56:53;1.50;;;1.40;;
19664;SDS011;9980;51.020;7.772;2023-06-04T07:59:22;2.17;;;1.90;;
19664;SDS011;9980;51.020;7.772;2023-06-04T08:01:50;4.27;;;1.40;;
19664;SDS011;9980;51.020;7.772;2023-06-04T08:04:20;2.57;;;1.37;;
19664;SDS011;9980;51.020;7.772;2023-06-04T08:06:47;2.80;;;1.60;;
19664;SDS011;9980;51.020;7.772;2023-06-04T08:09:15;2.27;;;1.40;;
19664;SDS011;9980;51.020;7.772;2023-06-04T08:11:42;3.40;;;1.40;;
19664;SDS011;9980;51.020;7.772;2023-06-04T08:14:10;2.17;;;1.30;;
19664;SDS011;9980;51.020;7.772;2023-06-04T08:16:39;4.10;;;1.30;;
19664;SDS011;9980;51.020;7.772;2023-06-04T08:19:07;1.17;;;1.07;;
19664;SDS011;9980;51.020;7.772;2023-06-04T08:21:34;2.70;;;1.67;;
19664;SDS011;9980;51.020;7.772;2023-06-04T08:24:01;4.27;;;1.50;;
19664;SDS011;9980;51.020;7.772;2023-06-04T08:26:29;1.83;;;1.30;;
19664;SDS011;9980;51.020;7.772;2023-06-04T08:28:56;4.77;;;1.50;;
19664;SDS011;9980;51.020;7.772;2023-06-04T08:31:23;3.50;;;1.40;;
19664;SDS011;9980;51.020;7.772;2023-06-04T08:33:50;2.30;;;1.40;;
19664;SDS011;9980;51.020;7.772;2023-06-04T08:36:17;2.67;;;1.20;;
19664;SDS011;9980;51.020;7.772;2023-06-04T08:38:44;2.27;;;1.30;;
19664;SDS011;9980;51.020;7.772;2023-06-04T08:41:24;2.30;;;1.00;;
19664;SDS011;9980;51.020;7.772;2023-06-04T08:44:09;4.53;;;1.20;;
19664;SDS011;9980;51.020;7.772;2023-06-04T08:46:39;1.10;;;1.00;;
19664;SDS011;9980;51.020;7.772;2023-06-04T08:49:07;1.33;;;1.13;;
19664;SDS011;9980;51.020;7.772;2023-06-04T08:51:36;5.15;;;1.23;;
19664;SDS011;9980;51.020;7.772;2023-06-04T08:54:07;3.08;;;1.30;;
19664;SDS011;9980;51.020;7.772;2023-06-04T08:56:36;4.60;;;1.30;;
19664;SDS011;9980;51.020;7.772;2023-06-04T08:59:04;2.40;;;1.30;;
19664;SDS011;9980;51.020;7.772;2023-06-04T09:01:35;1.70;;;1.35;;
19664;SDS011;9980;51.020;7.772;2023-06-04T09:04:07;1.98;;;1.15;;
19664;SDS011;9980;51.020;7.772;2023-06-04T09:06:38;1.45;;;1.17;;
19664;SDS011;9980;51.020;7.772;2023-06-04T09:09:08;3.97;;;1.30;;
19664;SDS011;9980;51.020;7.772;2023-06-04T09:11:42;1.10;;;1.00;;
19664;SDS011;9980;51.020;7.772;2023-06-04T09:14:18;3.03;;;1.33;;
19664;SDS011;9980;51.020;7.772;2023-06-04T09:16:50;1.65;;;1.30;;
19664;SDS011;9980;51.020;7.772;2023-06-04T09:19:19;4.07;;;1.30;;
19664;SDS011;9980;51.020;7.772;2023-06-04T09:21:51;1.15;;;1.05;;
19664;SDS011;9980;51.020;7.772;2023-06-04T09:24:45;1.13;;;1.00;;
19664;SDS011;9980;51.020;7.772;2023-06-04T09:27:19;2.78;;;1.10;;
19664;SDS011;9980;51.020;7.772;2023-06-04T09:29:51;3.83;;;1.33;;
19664;SDS011;9980;51.020;7.772;2023-06-04T09:32:24;2.45;;;1.40;;
19664;SDS011;9980;51.020;7.772;2023-06-04T09:35:08;2.08;;;1.30;;
19664;SDS011;9980;51.020;7.772;2023-06-04T09:37:55;1.20;;;1.10;;
19664;SDS011;9980;51.020;7.772;2023-06-04T09:40:34;1.98;;;1.23;;
19664;SDS011;9980;51.020;7.772;2023-06-04T09:43:04;2.38;;;1.13;;
19664;SDS011;9980;51.020;7.772;2023-06-04T09:45:33;1.30;;;1.20;;
19664;SDS011;9980;51.020;7.772;2023-06-04T09:48:03;2.50;;;1.27;;
19664;SDS011;9980;51.020;7.772;2023-06-04T09:50:34;1.30;;;1.10;;
19664;SDS011;9980;51.020;7.772;2023-06-04T09:55:57;1.30;;;1.00;;
19664;SDS011;9980;51.020;7.772;2023-06-04T09:58:27;1.77;;;1.20;;
19664;SDS011;9980;51.020;7.772;2023-06-04T10:00:55;1.85;;;1.02;;
19664;SDS011;9980;51.020;7.772;2023-06-04T10:03:24;1.50;;;0.93;;
19664;SDS011;9980;51.020;7.772;2023-06-04T10:05:53;1.38;;;1.17;;
19664;SDS011;9980;51.020;7.772;2023-06-04T10:08:26;0.85;;;0.82;;
19664;SDS011;9980;51.020;7.772;2023-06-04T10:11:00;1.95;;;1.00;;
19664;SDS011;9980;51.020;7.772;2023-06-04T10:13:29;1.05;;;0.95;;
19664;SDS011;9980;51.020;7.772;2023-06-04T10:16:04;1.25;;;1.00;;
19664;SDS011;9980;51.020;7.772;2023-06-04T10:18:38;1.67;;;1.10;;
19664;SDS011;9980;51.020;7.772;2023-06-04T10:21:06;1.40;;;1.02;;
19664;SDS011;9980;51.020;7.772;2023-06-04T10:23:35;1.70;;;1.15;;
19664;SDS011;9980;51.020;7.772;2023-06-04T10:26:03;1.67;;;1.05;;
19664;SDS011;9980;51.020;7.772;2023-06-04T10:28:29;1.85;;;1.13;;
19664;SDS011;9980;51.020;7.772;2023-06-04T10:30:59;1.92;;;1.20;;
19664;SDS011;9980;51.020;7.772;2023-06-04T10:33:27;2.35;;;1.20;;
19664;SDS011;9980;51.020;7.772;2023-06-04T10:35:54;2.00;;;1.20;;
19664;SDS011;9980;51.020;7.772;2023-06-04T10:38:24;3.50;;;1.38;;
19664;SDS011;9980;51.020;7.772;2023-06-04T10:40:51;0.90;;;0.80;;
19664;SDS011;9980;51.020;7.772;2023-06-04T10:43:18;1.52;;;1.17;;
19664;SDS011;9980;51.020;7.772;2023-06-04T10:45:46;1.73;;;1.20;;
19664;SDS011;9980;51.020;7.772;2023-06-04T10:48:13;1.63;;;1.00;;
19664;SDS011;9980;51.020;7.772;2023-06-04T10:50:50;2.22;;;1.10;;
19664;SDS011;9980;51.020;7.772;2023-06-04T10:53:18;1.90;;;1.00;;
19664;SDS011;9980;51.020;7.772;2023-06-04T10:55:49;2.45;;;1.50;;
19664;SDS011;9980;51.020;7.772;2023-06-04T10:58:16;3.75;;;1.20;;
19664;SDS011;9980;51.020;7.772;2023-06-04T11:00:45;1.27;;;1.17;;
19664;SDS011;9980;51.020;7.772;2023-06-04T11:03:13;2.10;;;1.10;;
19664;SDS011;9980;51.020;7.772;2023-06-04T11:05:42;1.90;;;1.02;;
19664;SDS011;9980;51.020;7.772;2023-06-04T11:08:11;4.60;;;1.05;;
19664;SDS011;9980;51.020;7.772;2023-06-04T11:10:41;1.95;;;1.00;;
19664;SDS011;9980;51.020;7.772;2023-06-04T11:13:10;1.67;;;1.02;;
19664;SDS011;9980;51.020;7.772;2023-06-04T11:18:13;1.65;;;0.93;;
19664;SDS011;9980;51.020;7.772;2023-06-04T11:20:43;1.35;;;1.02;;
19664;SDS011;9980;51.020;7.772;2023-06-04T11:23:16;2.72;;;1.10;;
19664;SDS011;9980;51.020;7.772;2023-06-04T11:25:44;2.65;;;1.10;;
19664;SDS011;9980;51.020;7.772;2023-06-04T11:28:15;2.85;;;1.30;;
19664;SDS011;9980;51.020;7.772;2023-06-04T11:30:44;2.50;;;1.23;;
19664;SDS011;9980;51.020;7.772;2023-06-04T11:33:45;2.35;;;1.20;;
19664;SDS011;9980;51.020;7.772;2023-06-04T11:36:26;5.05;;;1.10;;
19664;SDS011;9980;51.020;7.772;2023-06-04T11:38:56;3.88;;;1.13;;
19664;SDS011;9980;51.020;7.772;2023-06-04T11:41:32;3.15;;;1.30;;
19664;SDS011;9980;51.020;7.772;2023-06-04T11:44:02;6.88;;;1.55;;
19664;SDS011;9980;51.020;7.772;2023-06-04T11:46:39;1.80;;;1.15;;
19664;SDS011;9980;51.020;7.772;2023-06-04T11:49:07;1.48;;;1.20;;
19664;SDS011;9980;51.020;7.772;2023-06-04T11:51:38;2.15;;;1.50;;
19664;SDS011;9980;51.020;7.772;2023-06-04T11:54:11;3.00;;;1.20;;
19664;SDS011;9980;51.020;7.772;2023-06-04T11:56:39;1.80;;;1.00;;
19664;SDS011;9980;51.020;7.772;2023-06-04T11:59:09;4.25;;;1.08;;
19664;SDS011;9980;51.020;7.772;2023-06-04T12:01:40;2.55;;;1.35;;
19664;SDS011;9980;51.020;7.772;2023-06-04T12:04:16;1.30;;;1.20;;
19664;SDS011;9980;51.020;7.772;2023-06-04T12:06:57;2.85;;;1.45;;
19664;SDS011;9980;51.020;7.772;2023-06-04T12:09:31;1.92;;;1.00;;
19664;SDS011;9980;51.020;7.772;2023-06-04T12:12:05;5.68;;;1.40;;
19664;SDS011;9980;51.020;7.772;2023-06-04T12:14:33;2.20;;;1.38;;
19664;SDS011;9980;51.020;7.772;2023-06-04T12:17:01;4.15;;;1.33;;
19664;SDS011;9980;51.020;7.772;2023-06-04T12:19:48;1.23;;;1.00;;
19664;SDS011;9980;51.020;7.772;2023-06-04T12:22:16;2.47;;;1.20;;
19664;SDS011;9980;51.020;7.772;2023-06-04T12:24:51;1.42;;;1.13;;
19664;SDS011;9980;51.020;7.772;2023-06-04T12:27:20;3.80;;;1.13;;
19664;SDS011;9980;51.020;7.772;2023-06-04T12:32:28;1.63;;;1.30;;
19664;SDS011;9980;51.020;7.772;2023-06-04T12:34:55;7.95;;;1.25;;
19664;SDS011;9980;51.020;7.772;2023-06-04T12:37:23;1.83;;;1.40;;
19664;SDS011;9980;51.020;7.772;2023-06-04T12:39:52;1.20;;;0.98;;
19664;SDS011;9980;51.020;7.772;2023-06-04T12:42:19;0.80;;;0.80;;
19664;SDS011;9980;51.020;7.772;2023-06-04T12:44:47;6.72;;;4.75;;
19664;SDS011;9980;51.020;7.772;2023-06-04T12:47:14;3.70;;;1.48;;
19664;SDS011;9980;51.020;7.772;2023-06-04T12:49:44;3.92;;;1.40;;
19664;SDS011;9980;51.020;7.772;2023-06-04T12:52:11;2.22;;;1.23;;
19664;SDS011;9980;51.020;7.772;2023-06-04T12:54:41;1.70;;;1.20;;
19664;SDS011;9980;51.020;7.772;2023-06-04T12:57:09;1.95;;;1.20;;
19664;SDS011;9980;51.020;7.772;2023-06-04T12:59:36;2.88;;;1.10;;
19664;SDS011;9980;51.020;7.772;2023-06-04T13:02:03;2.53;;;1.48;;
19664;SDS011;9980;51.020;7.772;2023-06-04T13:04:30;2.15;;;1.20;;
19664;SDS011;9980;51.020;7.772;2023-06-04T13:06:57;1.50;;;1.40;;
19664;SDS011;9980;51.020;7.772;2023-06-04T13:09:25;1.83;;;1.08;;
19664;SDS011;9980;51.020;7.772;2023-06-04T13:11:55;1.65;;;1.25;;
19664;SDS011;9980;51.020;7.772;2023-06-04T13:14:22;1.30;;;1.20;;
19664;SDS011;9980;51.020;7.772;2023-06-04T13:16:49;2.53;;;1.58;;
19664;SDS011;9980;51.020;7.772;2023-06-04T13:19:18;2.00;;;1.27;;
19664;SDS011;9980;51.020;7.772;2023-06-04T13:21:46;3.53;;;1.42;;
19664;SDS011;9980;51.020;7.772;2023-06-04T13:24:13;3.45;;;1.45;;
19664;SDS011;9980;51.020;7.772;2023-06-04T13:26:40;1.40;;;1.30;;
19664;SDS011;9980;51.020;7.772;2023-06-04T13:29:08;1.73;;;1.10;;
19664;SDS011;9980;51.020;7.772;2023-06-04T13:31:35;1.50;;;1.23;;
19664;SDS011;9980;51.020;7.772;2023-06-04T13:34:05;2.05;;;1.10;;
19664;SDS011;9980;51.020;7.772;2023-06-04T13:36:51;2.33;;;1.30;;
19664;SDS011;9980;51.020;7.772;2023-06-04T13:39:21;1.50;;;1.00;;
19664;SDS011;9980;51.020;7.772;2023-06-04T13:41:48;1.27;;;1.17;;
19664;SDS011;9980;51.020;7.772;2023-06-04T13:44:15;3.15;;;1.15;;
19664;SDS011;9980;51.020;7.772;2023-06-04T13:46:43;2.72;;;1.23;;
19664;SDS011;9980;51.020;7.772;2023-06-04T13:49:10;1.10;;;1.00;;
19664;SDS011;9980;51.020;7.772;2023-06-04T13:51:37;2.33;;;1.48;;
19664;SDS011;9980;51.020;7.772;2023-06-04T13:54:04;4.00;;;1.15;;
19664;SDS011;9980;51.020;7.772;2023-06-04T13:56:30;1.30;;;1.20;;
19664;SDS011;9980;51.020;7.772;2023-06-04T13:58:57;2.13;;;1.20;;
19664;SDS011;9980;51.020;7.772;2023-06-04T14:01:24;1.63;;;1.30;;
19664;SDS011;9980;51.020;7.772;2023-06-04T14:03:51;1.33;;;1.05;;
19664;SDS011;9980;51.020;7.772;2023-06-04T14:06:19;1.65;;;1.23;;
19664;SDS011;9980;51.020;7.772;2023-06-04T14:08:46;1.75;;;0.98;;
19664;SDS011;9980;51.020;7.772;2023-06-04T14:11:13;1.45;;;1.20;;
19664;SDS011;9980;51.020;7.772;2023-06-04T14:13:39;2.58;;;1.10;;
19664;SDS011;9980;51.020;7.772;2023-06-04T14:16:07;1.05;;;0.95;;
19664;SDS011;9980;51.020;7.772;2023-06-04T14:18:34;1.05;;;0.95;;
19664;SDS011;9980;51.020;7.772;2023-06-04T14:21:03;1.80;;;1.10;;
19664;SDS011;9980;51.020;7.772;2023-06-04T14:23:30;1.23;;;1.13;;
19664;SDS011;9980;51.020;7.772;2023-06-04T14:25:57;4.63;;;1.80;;
19664;SDS011;9980;51.020;7.772;2023-06-04T14:28:23;3.78;;;1.30;;
19664;SDS011;9980;51.020;7.772;2023-06-04T14:30:50;1.15;;;1.05;;
19664;SDS011;9980;51.020;7.772;2023-06-04T14:33:17;2.08;;;1.38;;
19664;SDS011;9980;51.020;7.772;2023-06-04T14:35:44;2.95;;;1.10;;
19664;SDS011;9980;51.020;7.772;2023-06-04T14:38:13;3.20;;;1.52;;
19664;SDS011;9980;51.020;7.772;2023-06-04T14:40:41;1.48;;;1.20;;
19664;SDS011;9980;51.020;7.772;2023-06-04T14:43:10;2.78;;;1.10;;
19664;SDS011;9980;51.020;7.772;2023-06-04T14:45:38;3.83;;;1.15;;
19664;SDS011;9980;51.020;7.772;2023-06-04T14:48:06;2.17;;;1.38;;
19664;SDS011;9980;51.020;7.772;2023-06-04T14:50:42;1.67;;;1.20;;
19664;SDS011;9980;51.020;7.772;2023-06-04T14:53:10;1.65;;;1.20;;
19664;SDS011;9980;51.020;7.772;2023-06-04T14:55:38;1.50;;;1.20;;
19664;SDS011;9980;51.020;7.772;2023-06-04T14:58:05;2.13;;;1.40;;
19664;SDS011;9980;51.020;7.772;2023-06-04T15:00:32;2.38;;;1.20;;
19664;SDS011;9980;51.020;7.772;2023-06-04T15:02:59;1.98;;;1.15;;
19664;SDS011;9980;51.020;7.772;2023-06-04T15:05:29;1.60;;;1.13;;
19664;SDS011;9980;51.020;7.772;2023-06-04T15:07:59;3.90;;;1.05;;
19664;SDS011;9980;51.020;7.772;2023-06-04T15:10:28;1.85;;;1.20;;
19664;SDS011;9980;51.020;7.772;2023-06-04T15:12:56;1.70;;;1.23;;
19664;SDS011;9980;51.020;7.772;2023-06-04T15:15:23;1.48;;;1.10;;
19664;SDS011;9980;51.020;7.772;2023-06-04T15:17:50;3.28;;;1.17;;
19664;SDS011;9980;51.020;7.772;2023-06-04T15:20:18;1.58;;;1.08;;
19664;SDS011;9980;51.020;7.772;2023-06-04T15:22:45;2.35;;;1.45;;
19664;SDS011;9980;51.020;7.772;2023-06-04T15:25:12;5.72;;;1.40;;
19664;SDS011;9980;51.020;7.772;2023-06-04T15:27:39;2.38;;;1.35;;